Estación meteorológica de Montseny - Vallcàrquera (Vallès Oriental, Parc Natural del Montseny)

Consulta los datos en tiempo real de la estación meteorológica de Montseny - Vallcàrquera





Hora UTC 21:30
Temperatura 12.4 ºC
Humedad 93.0 %
Pluja 0.0 mm
Velocidad viento 1.1 km/h
Dirección viento ENE
Radiación solar 0.0 W/m²

Datos diarios 2026-05-03



Hora UTC (invierno +1h; verano +2h)
Temperatura (ºC) Humedad (%) Velocidad viento (km/h) Precipitación (mm) Radiación solar (W/m²)
Hora UTC Aire Humedad Vel. Dir. Vel. Max Dir. Intent. máx 5 min. Rad. Sol.
00:05 13.8 85.0 1.5 N 1.5 WNW 0.0 0.0
00:10 13.8 84.8 2.1 NNW 6.0 NW 0.0 0.0
00:15 13.9 84.1 1.1 N 5.6 NNE 0.0 0.0
00:20 13.9 84.0 0.1 NNW 1.4 NNW 0.0 0.0
00:25 13.9 84.2 1.4 NNW 4.6 N 0.0 0.0
00:30 13.9 84.0 0.2 N 2.1 N 0.0 0.0
00:35 13.9 84.1 0.0 NNE 0.0 NNW 0.0 0.0
00:40 13.8 84.5 0.0 NNE 0.0 N 0.0 0.0
00:45 13.7 84.9 0.0 NNE 0.0 NNE 0.0 0.0
00:50 13.7 85.2 0.1 NW 1.1 NW 0.0 0.0
00:55 13.6 85.1 0.0 WNW 0.7 WNW 0.0 0.0
01:00 13.6 85.3 0.1 SSW 1.8 SSW 0.0 0.0
01:05 13.5 85.7 0.0 SSW 0.7 SSW 0.0 0.0
01:10 13.4 86.2 0.4 SW 2.1 WSW 0.0 0.0
01:15 13.4 86.4 0.2 WSW 2.1 WSW 0.0 0.0
01:20 13.5 86.8 0.4 E 1.4 E 0.0 0.0
01:25 13.4 87.2 0.0 NNE 0.0 E 0.0 0.0
01:30 13.5 87.1 0.2 E 2.8 E 0.0 0.0
01:35 13.5 87.1 2.3 ENE 4.6 ENE 0.0 0.0
01:40 13.4 86.7 0.5 ESE 2.1 ESE 0.0 0.0
01:45 13.3 86.8 0.4 ESE 2.8 ESE 0.0 0.0
01:50 13.2 87.3 0.7 E 2.5 ESE 0.0 0.0
01:55 13.1 87.2 0.9 N 2.5 ENE 0.0 0.0
02:00 13.1 86.8 0.3 ENE 1.8 ENE 0.0 0.0
02:05 13.0 86.5 0.3 NNE 1.8 N 0.0 0.0
02:10 13.0 85.2 0.0 N 1.1 N 0.0 0.0
02:15 12.9 84.1 0.0 NNE 0.0 NNE 0.0 0.0
02:20 12.7 83.2 0.0 NNW 0.7 NNW 0.0 0.0
02:25 12.6 80.9 1.4 ENE 3.5 ENE 0.0 0.0
02:30 12.6 79.1 0.6 NE 2.5 NE 0.0 0.0
02:35 12.6 76.5 0.6 NNE 2.5 NE 0.0 0.0
02:40 12.6 75.3 1.2 NNW 2.5 NNW 0.0 0.0
02:45 12.5 77.4 0.1 N 1.4 N 0.0 0.0
02:50 12.5 76.6 0.3 NE 1.8 ENE 0.0 0.0
02:55 12.4 74.7 0.6 NNE 1.8 N 0.0 0.0
03:00 12.5 74.8 0.1 WNW 1.4 W 0.0 0.0
03:05 12.4 71.1 0.4 W 1.4 W 0.0 0.0
03:10 12.5 73.6 0.0 NNE 0.0 NW 0.0 0.0
03:15 12.4 73.7 1.0 E 3.5 E 0.0 0.0
03:20 12.3 75.9 1.9 ENE 3.9 NE 0.0 0.0
03:25 12.3 75.2 1.3 NE 2.5 ENE 0.0 0.0
03:30 12.4 74.2 0.3 NE 1.4 NE 0.0 0.0
03:35 12.4 75.6 0.8 NE 2.5 ENE 0.0 0.0
03:40 12.4 76.1 1.1 NE 2.1 NE 0.0 0.0
03:45 12.5 76.5 0.4 ENE 1.8 ENE 0.0 0.0
03:50 12.4 75.1 0.6 NE 2.5 ENE 0.0 0.0
03:55 12.5 72.6 0.9 ENE 3.2 ENE 0.0 0.0
04:00 12.5 73.8 0.0 NNE 0.0 NE 0.0 0.0
04:05 12.5 74.0 1.3 NE 3.9 ENE 0.0 0.0
04:10 12.5 74.4 1.2 NNE 2.5 NNE 0.0 0.0
04:15 12.5 74.9 1.1 N 2.1 N 0.0 0.0
04:20 12.5 76.5 0.3 N 1.8 N 0.0 0.0
04:25 12.4 76.8 2.0 ENE 4.2 ENE 0.0 0.0
04:30 12.5 74.4 1.3 NE 3.2 ENE 0.0 0.0
04:35 12.5 75.4 0.1 NNE 1.1 N 0.0 0.0
04:40 12.5 75.5 0.5 NNE 2.1 NNE 0.0 0.2
04:45 12.5 75.3 0.0 NNE 0.0 NNW 0.0 0.6
04:50 12.5 76.4 0.8 N 2.1 NNW 0.0 1.5
04:55 12.4 76.6 0.5 NNW 1.8 NNW 0.0 4.0
05:00 12.4 76.5 0.0 NNE 0.0 NNW 0.0 5.8
05:05 12.3 77.1 0.1 N 1.1 N 0.0 7.1
05:10 12.3 78.0 0.4 NE 1.8 NE 0.0 9.0
05:15 12.3 77.9 0.6 N 1.4 NE 0.0 13.6
05:20 12.2 79.3 0.0 NNE 0.0 N 0.0 18.1
05:25 12.1 79.3 2.2 ENE 4.2 ENE 0.0 24.1
05:30 12.1 77.3 2.5 ENE 3.5 E 0.0 31.9
05:35 12.2 77.9 1.2 ENE 3.2 ENE 0.0 43.6
05:40 12.2 80.0 0.0 NNE 0.0 ENE 0.0 56.9
05:45 12.3 79.3 0.0 NNE 0.0 ENE 0.0 65.5
05:50 12.4 78.9 0.8 ENE 1.8 ENE 0.0 66.1
05:55 12.5 77.4 1.4 ENE 3.2 ENE 0.0 54.9
06:00 12.7 79.4 0.4 NE 2.8 NNE 0.0 68.6
06:05 13.0 81.4 0.0 NNE 0.0 E 0.0 83.4
06:10 13.3 81.1 0.0 NNE 0.0 ESE 0.0 90.9
06:15 13.5 79.3 0.5 E 1.8 E 0.0 90.2
06:20 13.6 77.3 0.1 ENE 1.1 ENE 0.0 105.6
06:25 13.8 79.1 0.9 S 2.8 SSW 0.0 115.1
06:30 13.9 79.0 0.9 SSW 2.8 SSW 0.0 133.9
06:35 13.8 80.1 2.3 SSW 5.3 SSW 0.0 139.0
06:40 13.8 83.0 2.1 SW 4.9 SSW 0.0 148.7
06:45 13.9 83.4 1.5 SSW 3.9 SSW 0.0 158.9
06:50 14.1 83.1 1.5 SW 3.5 SSW 0.0 163.0
06:55 14.2 83.0 1.6 SSW 4.9 SW 0.0 161.2
07:00 14.4 82.8 0.9 SW 2.8 SSW 0.0 151.4
07:05 14.5 82.6 1.2 WSW 2.8 SW 0.0 173.4
07:10 14.5 82.1 2.1 SW 6.0 SSW 0.0 191.0
07:15 14.5 81.6 2.1 WSW 5.6 S 0.0 197.0
07:20 14.6 81.1 1.4 S 4.9 SSW 0.0 192.1
07:25 14.8 80.6 2.0 SSW 4.2 SW 0.0 197.7
07:30 14.9 79.5 2.6 WSW 6.7 WSW 0.0 224.2
07:35 14.9 78.7 2.0 N 7.8 NNW 0.0 223.6
07:40 15.0 79.0 2.3 SSW 8.1 NE 0.0 224.2
07:45 15.0 78.4 2.6 SW 6.7 WSW 0.0 251.0
07:50 15.1 78.4 2.7 SW 5.6 SW 0.0 265.4
07:55 15.1 78.3 2.2 SSW 7.1 SSW 0.0 213.2
08:00 15.2 78.0 1.5 SW 5.3 WSW 0.0 220.3
08:05 15.2 78.1 1.5 SW 6.0 SW 0.0 236.6
08:10 15.3 77.8 2.3 SW 6.4 W 0.0 276.7
08:15 15.4 78.2 2.0 SSW 7.1 SSW 0.0 300.3
08:20 15.7 76.7 2.5 SW 7.8 SSW 0.0 315.1
08:25 15.7 76.3 2.1 WSW 7.4 SSW 0.0 319.8
08:30 15.8 76.4 1.9 SW 8.8 WSW 0.0 318.5
08:35 15.9 74.6 2.8 NNW 8.8 WSW 0.0 322.0
08:40 15.6 76.3 2.8 SSW 7.1 SSW 0.0 305.8
08:45 15.7 76.5 2.8 ENE 6.7 NE 0.0 292.1
08:50 16.1 76.5 2.1 S 6.4 SSW 0.0 294.5
08:55 16.1 73.8 2.8 SW 10.6 SSW 0.0 277.0
09:00 15.9 73.4 4.2 WSW 9.5 S 0.0 266.9
09:05 15.7 74.2 2.8 SW 6.7 WSW 0.0 259.0
09:10 15.7 73.4 3.5 WSW 10.9 SSW 0.0 307.8
09:15 15.9 72.2 3.0 WSW 11.3 WSW 0.0 380.3
09:20 16.3 71.3 3.1 SW 9.2 SW 0.0 367.9
09:25 16.3 70.3 2.7 SE 9.9 S 0.0 346.8
09:30 16.3 69.8 3.7 WSW 10.6 W 0.0 379.8
09:35 16.2 69.6 5.6 SW 10.6 WSW 0.0 393.0
09:40 16.2 70.3 4.0 SW 14.5 WSW 0.0 470.1
09:45 16.6 70.3 1.7 WSW 5.6 SSW 0.0 410.8
09:50 16.7 69.2 3.9 SSW 9.9 SSW 0.0 393.9
09:55 16.6 70.0 2.3 SW 7.1 SSW 0.0 364.2
10:00 16.8 69.9 3.8 SSW 11.6 SSW 0.0 360.6
10:05 16.7 70.0 2.4 SW 7.1 WSW 0.0 359.3
10:10 16.8 69.6 3.4 SSW 12.7 SW 0.0 314.4
10:15 16.8 68.9 4.0 WSW 11.6 SW 0.0 431.5
10:20 17.0 67.2 3.3 SW 8.8 SW 0.0 380.6
10:25 16.9 67.4 3.8 SW 12.4 SSW 0.0 328.0
10:30 16.8 67.9 2.5 SSE 6.4 SSW 0.0 274.3
10:35 16.7 69.6 2.4 SSW 5.3 SSW 0.0 273.1
10:40 17.0 68.6 2.4 S 12.0 W 0.0 346.6
10:45 17.0 68.2 3.7 SW 12.7 W 0.0 346.1
10:50 16.8 68.5 3.5 SE 13.8 SSE 0.0 325.8
10:55 16.5 69.7 2.8 ENE 12.7 ESE 0.0 307.0
11:00 16.6 70.1 4.4 WSW 13.4 SW 0.0 303.7
11:05 16.6 70.7 3.4 SE 10.6 SSW 0.0 434.4
11:10 17.0 70.2 4.0 SSW 14.8 SW 0.0 466.2
11:15 17.1 68.7 3.7 SE 10.9 WSW 0.0 456.4
11:20 17.3 69.3 5.0 S 10.9 SE 0.0 610.9
11:25 17.7 68.0 2.9 ESE 8.1 S 0.0 594.3
11:30 18.0 66.6 3.4 SSE 12.7 W 0.0 796.9
11:35 18.7 63.7 4.7 SW 10.6 S 0.0 597.1
11:40 17.9 64.6 5.0 S 14.8 SSW 0.0 559.2
11:45 17.8 65.6 5.5 ESE 16.6 E 0.0 844.0
11:50 18.4 61.5 3.3 ENE 12.4 ENE 0.0 498.7
11:55 18.2 63.2 3.4 S 10.6 S 0.0 516.3
12:00 18.6 61.8 3.5 SSW 11.6 S 0.0 625.6
12:05 19.0 61.3 3.2 SW 9.2 SW 0.0 589.3
12:10 18.7 60.2 5.5 SW 18.7 SW 0.0 372.1
12:15 17.9 62.5 4.8 SSW 16.9 SSW 0.0 378.4
12:20 18.1 62.9 3.4 SW 8.8 SSE 0.0 415.7
12:25 18.0 62.6 4.4 SW 12.0 SSW 0.0 415.0
12:30 18.0 63.7 4.4 S 9.9 SSW 0.0 354.6
12:35 17.6 62.6 3.8 E 10.9 ENE 0.0 278.2
12:40 17.4 63.8 3.8 E 9.9 ENE 0.0 285.5
12:45 17.4 64.3 2.5 SE 6.4 E 0.0 284.4
12:50 17.6 62.9 2.7 ESE 8.1 E 0.0 217.5
12:55 17.3 63.7 2.6 S 6.7 W 0.0 170.5
13:00 17.1 64.0 5.5 SW 12.4 SW 0.0 182.3
13:05 16.9 64.4 4.2 SW 7.8 WSW 0.0 201.5
13:10 16.9 65.0 5.1 SSE 11.6 SSW 0.0 199.9
13:15 16.8 65.5 1.9 SE 8.5 SE 0.0 160.2
13:20 16.8 64.2 3.2 WSW 13.1 WSW 0.0 150.9
13:25 16.5 65.2 4.0 SW 10.9 S 0.0 231.2
13:30 16.7 65.9 3.9 SE 10.2 SW 0.0 325.2
13:35 16.9 64.3 5.4 ENE 13.8 E 0.0 416.0
13:40 16.9 62.8 2.9 ENE 10.2 E 0.0 480.2
13:45 17.2 64.3 3.6 ESE 9.9 NW 0.0 578.0
13:50 18.0 63.9 4.4 WNW 10.9 WSW 0.0 558.0
13:55 17.9 65.7 3.2 WSW 15.2 NNE 0.0 662.1
14:05 18.0 64.5 4.4 WSW 9.5 SSW 0.0 796.3
14:10 18.6 63.0 5.0 SSW 17.3 SSW 0.0 786.2
14:15 18.4 62.0 3.3 ENE 10.6 NE 0.0 688.9
14:20 18.7 62.5 4.6 ESE 8.1 ENE 0.0 777.4
14:25 18.3 61.8 4.3 SSW 12.0 SSW 0.0 521.8
14:30 18.4 60.3 6.0 SSW 15.5 SSW 0.0 529.9
14:35 18.3 59.8 2.5 WNW 7.4 S 0.0 385.3
14:40 18.0 62.4 4.2 SSW 14.8 SW 0.0 314.8
14:45 18.0 63.1 2.8 ENE 7.4 E 0.0 313.6
14:50 17.9 64.0 4.7 SW 13.8 SSW 0.0 300.2
14:55 17.6 64.0 2.0 SW 5.3 ESE 0.0 285.9
15:00 17.5 64.2 4.4 SSW 13.1 WSW 0.0 232.6
15:05 17.3 65.7 2.3 SSW 7.4 S 0.0 166.7
15:10 17.1 65.7 3.7 SW 9.9 WSW 0.0 137.5
15:15 16.8 66.8 3.4 SW 13.8 W 0.0 108.2
15:20 16.6 67.8 3.0 SSW 10.2 SSW 0.0 95.0
15:25 16.4 68.0 3.1 SSW 10.6 SSW 0.0 77.1
15:30 16.2 69.4 2.9 S 6.7 SSE 0.0 53.6
15:35 16.0 70.0 3.2 WSW 13.1 WSW 0.0 47.3
15:40 15.8 73.2 2.5 SW 8.8 WSW 0.0 42.1
15:45 15.5 77.4 1.4 W 4.6 SSW 0.0 38.9
15:50 15.2 80.7 3.8 WSW 8.8 SW 0.0 35.1
15:55 14.9 83.1 4.3 SW 11.3 SSW 0.0 31.5
16:00 14.6 84.4 1.7 SW 6.4 SW 0.0 31.6
16:05 14.5 85.5 1.4 SE 7.4 NNE 0.0 36.8
16:10 14.5 85.6 2.2 WSW 8.1 WNW 0.0 48.8
16:15 14.4 86.2 2.5 WSW 7.4 NW 0.0 51.1
16:20 14.3 85.3 1.6 ESE 5.6 ENE 0.0 55.9
16:25 14.3 84.9 1.6 ENE 4.2 ENE 0.0 64.7
16:30 14.5 86.5 1.8 SSE 4.6 ENE 0.0 71.5
16:35 14.5 86.0 2.5 S 7.4 S 0.0 79.0
16:40 14.4 83.4 3.5 E 11.6 NNE 0.0 90.0
16:45 14.3 82.0 4.6 E 11.3 ENE 0.0 60.9
16:50 14.1 82.2 6.1 E 15.5 E 0.0 66.5
16:55 14.0 82.2 5.8 ESE 14.8 E 0.0 77.5
17:00 13.9 82.5 3.9 ESE 10.6 E 0.0 76.7
17:05 13.9 82.2 3.3 ESE 11.6 SE 0.0 70.3
17:10 13.9 82.2 2.7 ESE 9.5 E 0.0 61.8
17:15 13.9 81.6 2.0 ESE 5.3 ESE 0.0 39.8
17:20 13.9 81.0 1.5 SE 5.6 ENE 0.0 42.6
17:25 13.9 80.6 2.8 ENE 7.4 ENE 0.0 44.7
17:30 13.9 80.5 2.0 ESE 8.1 E 0.0 45.5
17:35 13.9 78.6 2.6 SSE 8.1 S 0.0 35.0
17:40 13.9 76.5 4.6 SE 15.9 E 0.0 27.9
17:45 13.9 76.9 1.2 S 6.4 S 0.0 26.9
17:50 13.9 77.4 1.2 SE 6.0 SE 0.0 27.2
17:55 13.9 77.1 1.2 WSW 5.6 SW 0.0 30.2
18:00 14.0 77.6 0.8 SW 3.2 SSW 0.0 25.0
18:05 13.9 78.6 1.4 SW 3.2 WSW 0.0 20.9
18:10 13.9 78.7 0.5 SW 2.5 WSW 0.0 14.3
18:20 13.9 77.6 1.6 NW 4.2 WSW 0.0 5.7
18:25 13.9 77.8 1.1 NW 3.2 N 0.0 4.2
18:30 13.8 78.5 1.3 ESE 6.0 E 0.0 3.4
18:35 13.8 77.8 0.6 ESE 2.8 SE 0.0 3.9
18:40 13.8 78.5 1.5 ENE 7.1 NNW 0.0 1.3
18:45 13.8 78.7 1.8 WSW 6.7 ESE 0.0 0.0
18:50 13.7 80.8 0.6 SSW 1.8 WSW 0.0 0.0
18:55 13.5 82.3 1.1 S 4.9 SE 0.0 0.0
19:00 13.4 82.4 0.6 SSW 2.5 SW 0.0 0.0
19:05 13.4 82.6 0.1 W 1.8 W 0.0 0.0
19:10 13.4 82.4 1.1 WSW 3.2 W 0.0 0.0
19:20 13.3 82.8 0.1 NNW 1.1 NNW 0.0 0.0
19:25 13.3 82.7 1.0 W 4.2 W 0.0 0.0
19:30 13.3 82.4 1.3 WSW 3.2 SW 0.0 0.0
19:35 13.3 80.9 1.5 NW 3.5 N 0.0 0.1
19:40 13.4 79.3 0.1 NNW 2.5 NNW 0.0 0.1
19:45 13.4 82.2 0.4 SW 1.8 WSW 0.0 0.0
19:50 13.3 83.8 1.2 SW 3.2 WSW 0.0 0.0
19:55 13.2 84.6 1.0 SW 3.5 WSW 0.0 0.0
20:00 13.2 85.2 1.0 S 2.5 S 0.0 0.0
20:05 13.2 83.7 2.5 SSW 5.6 SSW 0.0 0.0
20:10 13.2 83.4 1.3 SSW 4.9 SW 0.0 0.0
20:15 13.2 83.5 1.2 SSW 3.5 SSW 0.0 0.0
20:20 13.2 84.0 1.2 SW 3.2 WSW 0.0 0.0
20:25 13.2 85.6 0.8 SSW 2.1 SW 0.0 0.0
20:30 13.1 86.4 0.9 SW 2.5 WSW 0.0 0.0
20:40 13.0 87.0 0.5 SW 1.8 SW 0.0 0.0
20:45 12.9 87.6 0.1 WSW 1.8 SW 0.0 0.0
20:50 12.9 88.6 0.1 SW 1.4 SW 0.0 0.0
21:00 12.7 90.2 0.1 SW 2.1 SSW 0.0 0.0
21:05 12.6 91.4 0.5 SSW 1.8 SSW 0.0 0.0
21:10 12.5 92.2 0.5 SSW 1.8 SSW 0.0 0.0
21:15 12.5 92.7 0.3 S 1.4 S 0.0 0.0
21:20 12.4 93.0 0.0 NNE 0.0 S 0.0 0.0
21:25 12.4 92.8 0.0 NNE 0.0 S 0.0 0.0
21:30 12.4 93.0 1.1 ENE 2.5 E 0.0 0.0
Máxima 19.0 93.0 6.1 E 18.7 SW 0.0 844.0
Mínima 12.1 59.8
Total 0.0